sensor_id;sensor_type;location;lat;lon;timestamp;P1;durP1;ratioP1;P2;durP2;ratioP2
4601;SDS011;2313;48.552;9.370;2022-09-13T00:00:35;1.60;;;1.23;;
4601;SDS011;2313;48.552;9.370;2022-09-13T00:03:02;1.50;;;1.00;;
4601;SDS011;2313;48.552;9.370;2022-09-13T00:05:27;5.17;;;1.40;;
4601;SDS011;2313;48.552;9.370;2022-09-13T00:07:54;2.10;;;1.03;;
4601;SDS011;2313;48.552;9.370;2022-09-13T00:10:20;4.10;;;1.30;;
4601;SDS011;2313;48.552;9.370;2022-09-13T00:12:46;1.13;;;0.90;;
4601;SDS011;2313;48.552;9.370;2022-09-13T00:15:13;1.67;;;0.90;;
4601;SDS011;2313;48.552;9.370;2022-09-13T00:17:39;1.00;;;0.90;;
4601;SDS011;2313;48.552;9.370;2022-09-13T00:20:05;8.20;;;1.40;;
4601;SDS011;2313;48.552;9.370;2022-09-13T00:22:32;2.37;;;1.27;;
4601;SDS011;2313;48.552;9.370;2022-09-13T00:24:58;1.00;;;0.90;;
4601;SDS011;2313;48.552;9.370;2022-09-13T00:27:24;1.30;;;0.80;;
4601;SDS011;2313;48.552;9.370;2022-09-13T00:29:50;5.23;;;1.03;;
4601;SDS011;2313;48.552;9.370;2022-09-13T00:32:16;1.37;;;0.80;;
4601;SDS011;2313;48.552;9.370;2022-09-13T00:34:41;3.40;;;1.30;;
4601;SDS011;2313;48.552;9.370;2022-09-13T00:37:07;1.57;;;0.83;;
4601;SDS011;2313;48.552;9.370;2022-09-13T00:39:33;2.87;;;0.87;;
4601;SDS011;2313;48.552;9.370;2022-09-13T00:41:59;1.30;;;0.80;;
4601;SDS011;2313;48.552;9.370;2022-09-13T00:47:35;1.00;;;0.90;;
4601;SDS011;2313;48.552;9.370;2022-09-13T00:50:24;1.33;;;0.70;;
4601;SDS011;2313;48.552;9.370;2022-09-13T00:53:02;1.20;;;0.80;;
4601;SDS011;2313;48.552;9.370;2022-09-13T00:56:04;1.47;;;1.23;;
4601;SDS011;2313;48.552;9.370;2022-09-13T00:58:34;1.13;;;0.90;;
4601;SDS011;2313;48.552;9.370;2022-09-13T01:01:07;1.07;;;0.80;;
4601;SDS011;2313;48.552;9.370;2022-09-13T01:03:37;0.80;;;0.80;;
4601;SDS011;2313;48.552;9.370;2022-09-13T01:06:07;1.73;;;0.80;;
4601;SDS011;2313;48.552;9.370;2022-09-13T01:08:37;1.13;;;0.80;;
4601;SDS011;2313;48.552;9.370;2022-09-13T01:11:08;1.13;;;0.90;;
4601;SDS011;2313;48.552;9.370;2022-09-13T01:13:51;1.40;;;1.00;;
4601;SDS011;2313;48.552;9.370;2022-09-13T01:16:19;1.10;;;0.73;;
4601;SDS011;2313;48.552;9.370;2022-09-13T01:18:45;1.33;;;0.83;;
4601;SDS011;2313;48.552;9.370;2022-09-13T01:35:40;2.77;;;1.50;;
4601;SDS011;2313;48.552;9.370;2022-09-13T01:43:38;1.40;;;0.80;;
4601;SDS011;2313;48.552;9.370;2022-09-13T01:52:00;1.23;;;0.87;;
4601;SDS011;2313;48.552;9.370;2022-09-13T01:54:47;1.07;;;0.97;;
4601;SDS011;2313;48.552;9.370;2022-09-13T01:58:21;1.27;;;1.00;;
4601;SDS011;2313;48.552;9.370;2022-09-13T02:00:43;2.97;;;1.13;;
4601;SDS011;2313;48.552;9.370;2022-09-13T02:04:04;1.93;;;1.40;;
4601;SDS011;2313;48.552;9.370;2022-09-13T02:06:11;2.70;;;1.57;;
4601;SDS011;2313;48.552;9.370;2022-09-13T02:08:42;2.90;;;1.70;;
4601;SDS011;2313;48.552;9.370;2022-09-13T02:11:15;3.90;;;1.87;;
4601;SDS011;2313;48.552;9.370;2022-09-13T02:16:30;2.03;;;1.70;;
4601;SDS011;2313;48.552;9.370;2022-09-13T02:19:10;2.30;;;2.10;;
4601;SDS011;2313;48.552;9.370;2022-09-13T02:21:41;2.10;;;1.90;;
4601;SDS011;2313;48.552;9.370;2022-09-13T02:24:12;5.23;;;2.00;;
4601;SDS011;2313;48.552;9.370;2022-09-13T02:27:06;3.60;;;2.20;;
4601;SDS011;2313;48.552;9.370;2022-09-13T02:29:39;6.40;;;2.00;;
4601;SDS011;2313;48.552;9.370;2022-09-13T02:32:17;2.87;;;1.53;;
4601;SDS011;2313;48.552;9.370;2022-09-13T02:34:52;6.43;;;2.13;;
4601;SDS011;2313;48.552;9.370;2022-09-13T02:37:22;4.47;;;2.30;;
4601;SDS011;2313;48.552;9.370;2022-09-13T02:39:51;2.43;;;2.00;;
4601;SDS011;2313;48.552;9.370;2022-09-13T02:42:25;2.80;;;1.80;;
4601;SDS011;2313;48.552;9.370;2022-09-13T02:44:56;2.23;;;2.03;;
4601;SDS011;2313;48.552;9.370;2022-09-13T02:58:24;3.03;;;2.10;;
4601;SDS011;2313;48.552;9.370;2022-09-13T03:01:14;3.00;;;1.43;;
4601;SDS011;2313;48.552;9.370;2022-09-13T03:03:41;2.83;;;1.80;;
4601;SDS011;2313;48.552;9.370;2022-09-13T03:06:07;2.47;;;2.27;;
4601;SDS011;2313;48.552;9.370;2022-09-13T03:08:33;1.90;;;1.73;;
4601;SDS011;2313;48.552;9.370;2022-09-13T03:13:38;3.67;;;2.10;;
4601;SDS011;2313;48.552;9.370;2022-09-13T03:19:07;3.20;;;1.90;;
4601;SDS011;2313;48.552;9.370;2022-09-13T03:24:27;2.10;;;2.00;;
4601;SDS011;2313;48.552;9.370;2022-09-13T03:30:08;6.53;;;2.30;;
4601;SDS011;2313;48.552;9.370;2022-09-13T03:38:14;2.27;;;1.73;;
4601;SDS011;2313;48.552;9.370;2022-09-13T03:40:49;1.97;;;1.77;;
4601;SDS011;2313;48.552;9.370;2022-09-13T03:43:30;1.90;;;1.53;;
4601;SDS011;2313;48.552;9.370;2022-09-13T03:46:04;3.20;;;1.40;;
4601;SDS011;2313;48.552;9.370;2022-09-13T03:48:35;2.23;;;2.03;;
4601;SDS011;2313;48.552;9.370;2022-09-13T03:51:04;1.93;;;1.70;;
4601;SDS011;2313;48.552;9.370;2022-09-13T03:53:31;2.00;;;1.60;;
4601;SDS011;2313;48.552;9.370;2022-09-13T03:55:59;1.73;;;1.50;;
4601;SDS011;2313;48.552;9.370;2022-09-13T03:58:25;4.63;;;1.90;;
4601;SDS011;2313;48.552;9.370;2022-09-13T04:00:51;5.17;;;2.37;;
4601;SDS011;2313;48.552;9.370;2022-09-13T04:03:18;1.70;;;1.60;;
4601;SDS011;2313;48.552;9.370;2022-09-13T04:05:44;7.40;;;2.00;;
4601;SDS011;2313;48.552;9.370;2022-09-13T04:08:10;1.70;;;1.60;;
4601;SDS011;2313;48.552;9.370;2022-09-13T04:10:36;2.07;;;1.60;;
4601;SDS011;2313;48.552;9.370;2022-09-13T04:13:02;2.00;;;1.90;;
4601;SDS011;2313;48.552;9.370;2022-09-13T04:15:28;1.70;;;1.60;;
4601;SDS011;2313;48.552;9.370;2022-09-13T04:17:55;1.90;;;1.63;;
4601;SDS011;2313;48.552;9.370;2022-09-13T04:20:21;2.00;;;1.70;;
4601;SDS011;2313;48.552;9.370;2022-09-13T04:22:53;5.73;;;1.73;;
4601;SDS011;2313;48.552;9.370;2022-09-13T04:25:20;3.37;;;1.60;;
4601;SDS011;2313;48.552;9.370;2022-09-13T04:27:46;2.93;;;1.83;;
4601;SDS011;2313;48.552;9.370;2022-09-13T04:30:13;5.27;;;2.13;;
4601;SDS011;2313;48.552;9.370;2022-09-13T04:32:41;2.60;;;1.70;;
4601;SDS011;2313;48.552;9.370;2022-09-13T04:35:08;2.30;;;1.83;;
4601;SDS011;2313;48.552;9.370;2022-09-13T04:37:34;2.70;;;1.60;;
4601;SDS011;2313;48.552;9.370;2022-09-13T04:39:59;4.30;;;1.73;;
4601;SDS011;2313;48.552;9.370;2022-09-13T04:42:25;6.30;;;2.00;;
4601;SDS011;2313;48.552;9.370;2022-09-13T04:44:51;3.20;;;2.03;;
4601;SDS011;2313;48.552;9.370;2022-09-13T04:47:16;2.33;;;1.90;;
4601;SDS011;2313;48.552;9.370;2022-09-13T04:49:43;4.73;;;1.80;;
4601;SDS011;2313;48.552;9.370;2022-09-13T04:52:08;3.00;;;1.90;;
4601;SDS011;2313;48.552;9.370;2022-09-13T04:54:34;2.03;;;1.83;;
4601;SDS011;2313;48.552;9.370;2022-09-13T04:57:00;2.43;;;2.00;;
4601;SDS011;2313;48.552;9.370;2022-09-13T04:59:25;1.57;;;1.47;;
4601;SDS011;2313;48.552;9.370;2022-09-13T05:01:51;2.33;;;2.13;;
4601;SDS011;2313;48.552;9.370;2022-09-13T05:04:17;1.93;;;1.83;;
4601;SDS011;2313;48.552;9.370;2022-09-13T05:06:42;2.80;;;2.10;;
4601;SDS011;2313;48.552;9.370;2022-09-13T05:09:12;3.53;;;1.90;;
4601;SDS011;2313;48.552;9.370;2022-09-13T05:11:39;2.80;;;1.57;;
4601;SDS011;2313;48.552;9.370;2022-09-13T05:14:05;7.17;;;1.63;;
4601;SDS011;2313;48.552;9.370;2022-09-13T05:16:31;3.33;;;1.70;;
4601;SDS011;2313;48.552;9.370;2022-09-13T05:18:57;1.90;;;1.80;;
4601;SDS011;2313;48.552;9.370;2022-09-13T05:21:24;3.00;;;1.50;;
4601;SDS011;2313;48.552;9.370;2022-09-13T05:23:52;2.20;;;2.00;;
4601;SDS011;2313;48.552;9.370;2022-09-13T05:26:19;3.20;;;1.70;;
4601;SDS011;2313;48.552;9.370;2022-09-13T05:28:46;2.10;;;1.90;;
4601;SDS011;2313;48.552;9.370;2022-09-13T05:31:14;7.10;;;1.97;;
4601;SDS011;2313;48.552;9.370;2022-09-13T05:33:40;2.60;;;1.77;;
4601;SDS011;2313;48.552;9.370;2022-09-13T05:36:06;2.40;;;1.97;;
4601;SDS011;2313;48.552;9.370;2022-09-13T05:38:32;8.03;;;2.57;;
4601;SDS011;2313;48.552;9.370;2022-09-13T05:40:58;4.80;;;2.43;;
4601;SDS011;2313;48.552;9.370;2022-09-13T05:43:26;2.50;;;1.50;;
4601;SDS011;2313;48.552;9.370;2022-09-13T05:48:27;2.60;;;2.40;;
4601;SDS011;2313;48.552;9.370;2022-09-13T05:50:53;2.97;;;2.43;;
4601;SDS011;2313;48.552;9.370;2022-09-13T05:53:19;3.70;;;2.30;;
4601;SDS011;2313;48.552;9.370;2022-09-13T05:55:44;4.20;;;2.20;;
4601;SDS011;2313;48.552;9.370;2022-09-13T05:58:10;2.30;;;1.77;;
4601;SDS011;2313;48.552;9.370;2022-09-13T06:00:35;4.43;;;1.70;;
4601;SDS011;2313;48.552;9.370;2022-09-13T06:03:02;4.63;;;2.10;;
4601;SDS011;2313;48.552;9.370;2022-09-13T06:05:27;6.80;;;1.90;;
4601;SDS011;2313;48.552;9.370;2022-09-13T06:07:53;3.40;;;1.80;;
4601;SDS011;2313;48.552;9.370;2022-09-13T06:10:18;1.80;;;1.70;;
4601;SDS011;2313;48.552;9.370;2022-09-13T06:12:44;1.80;;;1.50;;
4601;SDS011;2313;48.552;9.370;2022-09-13T06:15:11;3.07;;;2.47;;
4601;SDS011;2313;48.552;9.370;2022-09-13T06:17:37;7.73;;;2.40;;
4601;SDS011;2313;48.552;9.370;2022-09-13T06:20:03;5.60;;;2.17;;
4601;SDS011;2313;48.552;9.370;2022-09-13T06:22:29;5.20;;;2.00;;
4601;SDS011;2313;48.552;9.370;2022-09-13T06:24:57;3.90;;;2.13;;
4601;SDS011;2313;48.552;9.370;2022-09-13T06:27:23;1.80;;;1.37;;
4601;SDS011;2313;48.552;9.370;2022-09-13T06:29:49;2.57;;;1.73;;
4601;SDS011;2313;48.552;9.370;2022-09-13T06:32:15;3.53;;;2.00;;
4601;SDS011;2313;48.552;9.370;2022-09-13T06:34:40;1.53;;;1.43;;
4601;SDS011;2313;48.552;9.370;2022-09-13T06:37:06;1.97;;;1.67;;
4601;SDS011;2313;48.552;9.370;2022-09-13T06:39:32;2.00;;;1.80;;
4601;SDS011;2313;48.552;9.370;2022-09-13T06:41:58;2.03;;;1.60;;
4601;SDS011;2313;48.552;9.370;2022-09-13T06:44:24;4.00;;;1.77;;
4601;SDS011;2313;48.552;9.370;2022-09-13T06:46:49;1.80;;;1.70;;
4601;SDS011;2313;48.552;9.370;2022-09-13T06:49:15;3.30;;;1.70;;
4601;SDS011;2313;48.552;9.370;2022-09-13T06:51:41;6.40;;;1.80;;
4601;SDS011;2313;48.552;9.370;2022-09-13T06:54:06;3.57;;;1.37;;
4601;SDS011;2313;48.552;9.370;2022-09-13T06:56:33;2.43;;;2.00;;
4601;SDS011;2313;48.552;9.370;2022-09-13T06:59:02;2.13;;;1.93;;
4601;SDS011;2313;48.552;9.370;2022-09-13T07:01:37;2.70;;;2.00;;
4601;SDS011;2313;48.552;9.370;2022-09-13T07:04:11;3.50;;;2.20;;
4601;SDS011;2313;48.552;9.370;2022-09-13T07:06:39;2.80;;;2.17;;
4601;SDS011;2313;48.552;9.370;2022-09-13T07:09:07;4.40;;;1.90;;
4601;SDS011;2313;48.552;9.370;2022-09-13T07:11:35;6.07;;;2.03;;
4601;SDS011;2313;48.552;9.370;2022-09-13T07:14:03;5.00;;;3.00;;
4601;SDS011;2313;48.552;9.370;2022-09-13T07:16:34;4.77;;;2.03;;
4601;SDS011;2313;48.552;9.370;2022-09-13T07:19:05;9.50;;;1.77;;
4601;SDS011;2313;48.552;9.370;2022-09-13T07:21:32;3.40;;;2.00;;
4601;SDS011;2313;48.552;9.370;2022-09-13T07:23:59;2.27;;;1.70;;
4601;SDS011;2313;48.552;9.370;2022-09-13T07:26:26;3.47;;;1.63;;
4601;SDS011;2313;48.552;9.370;2022-09-13T07:28:52;4.07;;;1.70;;
4601;SDS011;2313;48.552;9.370;2022-09-13T07:33:54;4.63;;;1.60;;
4601;SDS011;2313;48.552;9.370;2022-09-13T07:36:21;3.20;;;1.50;;
4601;SDS011;2313;48.552;9.370;2022-09-13T07:38:48;2.70;;;1.70;;
4601;SDS011;2313;48.552;9.370;2022-09-13T07:41:14;2.03;;;1.53;;
4601;SDS011;2313;48.552;9.370;2022-09-13T07:43:41;5.23;;;1.93;;
4601;SDS011;2313;48.552;9.370;2022-09-13T07:46:08;2.53;;;1.90;;
4601;SDS011;2313;48.552;9.370;2022-09-13T07:48:39;2.77;;;1.20;;
4601;SDS011;2313;48.552;9.370;2022-09-13T07:51:08;3.27;;;1.70;;
4601;SDS011;2313;48.552;9.370;2022-09-13T07:53:36;1.97;;;1.60;;
4601;SDS011;2313;48.552;9.370;2022-09-13T07:56:07;1.93;;;1.47;;
4601;SDS011;2313;48.552;9.370;2022-09-13T07:58:37;2.10;;;1.40;;
4601;SDS011;2313;48.552;9.370;2022-09-13T08:01:05;2.40;;;1.67;;
4601;SDS011;2313;48.552;9.370;2022-09-13T08:03:33;3.00;;;1.40;;
4601;SDS011;2313;48.552;9.370;2022-09-13T08:05:59;1.47;;;1.37;;
4601;SDS011;2313;48.552;9.370;2022-09-13T08:08:26;2.93;;;1.53;;
4601;SDS011;2313;48.552;9.370;2022-09-13T08:10:53;10.73;;;1.53;;
4601;SDS011;2313;48.552;9.370;2022-09-13T08:13:19;7.93;;;1.80;;
4601;SDS011;2313;48.552;9.370;2022-09-13T08:15:45;4.30;;;1.77;;
4601;SDS011;2313;48.552;9.370;2022-09-13T08:18:11;2.30;;;1.23;;
4601;SDS011;2313;48.552;9.370;2022-09-13T08:20:39;2.80;;;1.57;;
4601;SDS011;2313;48.552;9.370;2022-09-13T08:23:05;4.30;;;1.40;;
4601;SDS011;2313;48.552;9.370;2022-09-13T08:25:32;3.60;;;1.37;;
4601;SDS011;2313;48.552;9.370;2022-09-13T08:27:59;1.70;;;1.23;;
4601;SDS011;2313;48.552;9.370;2022-09-13T08:30:25;4.50;;;1.50;;
4601;SDS011;2313;48.552;9.370;2022-09-13T08:32:57;3.03;;;1.20;;
4601;SDS011;2313;48.552;9.370;2022-09-13T08:35:24;3.10;;;1.70;;
4601;SDS011;2313;48.552;9.370;2022-09-13T08:37:49;2.13;;;1.47;;
4601;SDS011;2313;48.552;9.370;2022-09-13T08:40:15;1.70;;;1.60;;
4601;SDS011;2313;48.552;9.370;2022-09-13T08:45:20;1.83;;;1.30;;
4601;SDS011;2313;48.552;9.370;2022-09-13T08:47:50;6.47;;;1.33;;
4601;SDS011;2313;48.552;9.370;2022-09-13T08:50:25;2.30;;;1.33;;
4601;SDS011;2313;48.552;9.370;2022-09-13T08:55:57;5.90;;;1.47;;
4601;SDS011;2313;48.552;9.370;2022-09-13T09:01:22;5.17;;;1.33;;
4601;SDS011;2313;48.552;9.370;2022-09-13T09:06:23;4.27;;;1.70;;
4601;SDS011;2313;48.552;9.370;2022-09-13T09:11:36;1.40;;;1.27;;
4601;SDS011;2313;48.552;9.370;2022-09-13T09:14:27;2.00;;;1.10;;
4601;SDS011;2313;48.552;9.370;2022-09-13T09:17:13;10.23;;;1.50;;
4601;SDS011;2313;48.552;9.370;2022-09-13T09:19:45;1.57;;;1.20;;
4601;SDS011;2313;48.552;9.370;2022-09-13T09:22:16;2.67;;;1.27;;
4601;SDS011;2313;48.552;9.370;2022-09-13T09:24:47;1.40;;;1.30;;
4601;SDS011;2313;48.552;9.370;2022-09-13T09:27:18;2.83;;;1.13;;
4601;SDS011;2313;48.552;9.370;2022-09-13T09:29:46;1.97;;;1.40;;
4601;SDS011;2313;48.552;9.370;2022-09-13T09:32:18;1.63;;;1.10;;
4601;SDS011;2313;48.552;9.370;2022-09-13T09:37:39;3.00;;;1.97;;
4601;SDS011;2313;48.552;9.370;2022-09-13T09:40:11;1.27;;;1.17;;
4601;SDS011;2313;48.552;9.370;2022-09-13T09:42:41;2.50;;;1.40;;
4601;SDS011;2313;48.552;9.370;2022-09-13T09:47:55;5.80;;;1.20;;
4601;SDS011;2313;48.552;9.370;2022-09-13T09:50:27;1.83;;;1.63;;
4601;SDS011;2313;48.552;9.370;2022-09-13T09:53:04;6.63;;;1.10;;
4601;SDS011;2313;48.552;9.370;2022-09-13T09:55:36;2.20;;;1.20;;
4601;SDS011;2313;48.552;9.370;2022-09-13T09:58:17;2.63;;;1.00;;
4601;SDS011;2313;48.552;9.370;2022-09-13T10:01:00;2.70;;;1.10;;
4601;SDS011;2313;48.552;9.370;2022-09-13T10:03:29;2.53;;;1.50;;
4601;SDS011;2313;48.552;9.370;2022-09-13T10:08:53;1.30;;;1.20;;
4601;SDS011;2313;48.552;9.370;2022-09-13T10:17:01;3.53;;;1.10;;
4601;SDS011;2313;48.552;9.370;2022-09-13T10:19:37;1.80;;;1.10;;
4601;SDS011;2313;48.552;9.370;2022-09-13T10:22:04;1.80;;;1.00;;
4601;SDS011;2313;48.552;9.370;2022-09-13T10:24:34;3.57;;;1.20;;
4601;SDS011;2313;48.552;9.370;2022-09-13T10:26:59;2.00;;;1.20;;
4601;SDS011;2313;48.552;9.370;2022-09-13T10:29:28;3.33;;;1.10;;
4601;SDS011;2313;48.552;9.370;2022-09-13T10:31:55;3.40;;;1.60;;
4601;SDS011;2313;48.552;9.370;2022-09-13T10:34:24;3.07;;;1.17;;
4601;SDS011;2313;48.552;9.370;2022-09-13T10:37:13;1.83;;;1.50;;
4601;SDS011;2313;48.552;9.370;2022-09-13T10:42:52;4.03;;;1.60;;
4601;SDS011;2313;48.552;9.370;2022-09-13T10:45:24;3.60;;;1.30;;
4601;SDS011;2313;48.552;9.370;2022-09-13T10:47:52;4.07;;;1.50;;
4601;SDS011;2313;48.552;9.370;2022-09-13T10:52:49;1.93;;;1.20;;
4601;SDS011;2313;48.552;9.370;2022-09-13T10:57:42;6.47;;;1.50;;
4601;SDS011;2313;48.552;9.370;2022-09-13T11:00:10;7.10;;;1.30;;
4601;SDS011;2313;48.552;9.370;2022-09-13T11:05:34;9.73;;;1.50;;
4601;SDS011;2313;48.552;9.370;2022-09-13T11:08:19;4.17;;;1.37;;
4601;SDS011;2313;48.552;9.370;2022-09-13T11:16:28;2.50;;;1.43;;
4601;SDS011;2313;48.552;9.370;2022-09-13T11:19:14;1.40;;;1.30;;
4601;SDS011;2313;48.552;9.370;2022-09-13T11:27:27;1.97;;;1.30;;
4601;SDS011;2313;48.552;9.370;2022-09-13T11:30:02;4.40;;;1.40;;
4601;SDS011;2313;48.552;9.370;2022-09-13T11:44:27;2.27;;;1.30;;
4601;SDS011;2313;48.552;9.370;2022-09-13T11:47:18;4.20;;;1.03;;
4601;SDS011;2313;48.552;9.370;2022-09-13T11:56:51;2.00;;;1.63;;
4601;SDS011;2313;48.552;9.370;2022-09-13T11:59:23;1.63;;;1.00;;
4601;SDS011;2313;48.552;9.370;2022-09-13T12:04:46;1.10;;;1.00;;
4601;SDS011;2313;48.552;9.370;2022-09-13T12:07:40;2.10;;;1.20;;
4601;SDS011;2313;48.552;9.370;2022-09-13T12:13:26;4.20;;;1.40;;
4601;SDS011;2313;48.552;9.370;2022-09-13T12:15:56;4.10;;;1.00;;
4601;SDS011;2313;48.552;9.370;2022-09-13T12:18:36;1.77;;;1.00;;
4601;SDS011;2313;48.552;9.370;2022-09-13T12:21:10;3.73;;;1.30;;
4601;SDS011;2313;48.552;9.370;2022-09-13T12:23:42;1.40;;;0.93;;
4601;SDS011;2313;48.552;9.370;2022-09-13T12:26:30;2.00;;;0.90;;
4601;SDS011;2313;48.552;9.370;2022-09-13T12:29:02;1.90;;;1.00;;
4601;SDS011;2313;48.552;9.370;2022-09-13T12:31:39;4.03;;;1.70;;
4601;SDS011;2313;48.552;9.370;2022-09-13T12:34:05;1.93;;;0.80;;
4601;SDS011;2313;48.552;9.370;2022-09-13T12:53:33;5.50;;;1.00;;
4601;SDS011;2313;48.552;9.370;2022-09-13T13:01:28;5.03;;;1.20;;
4601;SDS011;2313;48.552;9.370;2022-09-13T13:09:57;4.80;;;1.23;;
4601;SDS011;2313;48.552;9.370;2022-09-13T13:12:06;1.83;;;1.00;;
4601;SDS011;2313;48.552;9.370;2022-09-13T13:14:52;1.30;;;0.93;;
4601;SDS011;2313;48.552;9.370;2022-09-13T13:23:25;1.70;;;1.37;;
4601;SDS011;2313;48.552;9.370;2022-09-13T13:31:10;2.37;;;1.20;;
4601;SDS011;2313;48.552;9.370;2022-09-13T13:33:56;1.07;;;0.90;;
4601;SDS011;2313;48.552;9.370;2022-09-13T13:39:08;1.30;;;0.90;;
4601;SDS011;2313;48.552;9.370;2022-09-13T13:46:49;2.77;;;1.10;;
4601;SDS011;2313;48.552;9.370;2022-09-13T13:55:00;1.73;;;1.30;;
4601;SDS011;2313;48.552;9.370;2022-09-13T13:57:39;2.47;;;1.07;;
4601;SDS011;2313;48.552;9.370;2022-09-13T14:00:22;3.10;;;1.17;;
4601;SDS011;2313;48.552;9.370;2022-09-13T14:05:41;2.80;;;1.27;;
4601;SDS011;2313;48.552;9.370;2022-09-13T14:11:19;1.20;;;1.03;;
4601;SDS011;2313;48.552;9.370;2022-09-13T14:22:04;1.57;;;0.97;;
4601;SDS011;2313;48.552;9.370;2022-09-13T14:27:38;1.00;;;0.80;;
4601;SDS011;2313;48.552;9.370;2022-09-13T14:32:45;5.43;;;1.40;;
4601;SDS011;2313;48.552;9.370;2022-09-13T14:38:45;2.00;;;1.50;;
4601;SDS011;2313;48.552;9.370;2022-09-13T14:40:51;1.40;;;1.23;;
4601;SDS011;2313;48.552;9.370;2022-09-13T14:43:19;1.47;;;1.37;;
4601;SDS011;2313;48.552;9.370;2022-09-13T14:45:51;3.00;;;1.03;;
4601;SDS011;2313;48.552;9.370;2022-09-13T14:53:42;2.00;;;1.20;;
4601;SDS011;2313;48.552;9.370;2022-09-13T14:56:25;10.73;;;1.70;;
4601;SDS011;2313;48.552;9.370;2022-09-13T14:58:59;3.17;;;0.90;;
4601;SDS011;2313;48.552;9.370;2022-09-13T15:01:33;3.47;;;1.20;;
4601;SDS011;2313;48.552;9.370;2022-09-13T15:04:00;2.90;;;1.33;;
4601;SDS011;2313;48.552;9.370;2022-09-13T15:06:30;4.40;;;1.07;;
4601;SDS011;2313;48.552;9.370;2022-09-13T15:09:12;3.07;;;1.10;;
4601;SDS011;2313;48.552;9.370;2022-09-13T15:11:41;2.80;;;1.27;;
4601;SDS011;2313;48.552;9.370;2022-09-13T15:14:33;2.90;;;1.20;;
4601;SDS011;2313;48.552;9.370;2022-09-13T15:24:44;10.50;;;6.20;;
4601;SDS011;2313;48.552;9.370;2022-09-13T15:27:19;49.40;;;29.30;;
4601;SDS011;2313;48.552;9.370;2022-09-13T15:30:25;117.50;;;74.97;;
4601;SDS011;2313;48.552;9.370;2022-09-13T15:33:12;57.80;;;38.50;;
4601;SDS011;2313;48.552;9.370;2022-09-13T15:35:46;25.90;;;13.83;;
4601;SDS011;2313;48.552;9.370;2022-09-13T15:38:29;16.90;;;12.03;;
4601;SDS011;2313;48.552;9.370;2022-09-13T15:40:56;5.87;;;1.97;;
4601;SDS011;2313;48.552;9.370;2022-09-13T15:43:22;4.80;;;1.17;;
4601;SDS011;2313;48.552;9.370;2022-09-13T15:45:48;3.63;;;1.83;;
4601;SDS011;2313;48.552;9.370;2022-09-13T15:48:35;3.00;;;1.20;;
4601;SDS011;2313;48.552;9.370;2022-09-13T15:51:04;4.47;;;1.53;;
4601;SDS011;2313;48.552;9.370;2022-09-13T15:53:35;3.53;;;1.60;;
4601;SDS011;2313;48.552;9.370;2022-09-13T15:56:03;4.40;;;1.50;;
4601;SDS011;2313;48.552;9.370;2022-09-13T15:58:30;6.63;;;1.77;;
4601;SDS011;2313;48.552;9.370;2022-09-13T16:00:57;3.73;;;1.43;;
4601;SDS011;2313;48.552;9.370;2022-09-13T16:03:23;5.27;;;1.27;;
4601;SDS011;2313;48.552;9.370;2022-09-13T16:05:48;4.03;;;1.60;;
4601;SDS011;2313;48.552;9.370;2022-09-13T16:08:14;3.27;;;1.33;;
4601;SDS011;2313;48.552;9.370;2022-09-13T16:10:40;3.37;;;1.30;;
4601;SDS011;2313;48.552;9.370;2022-09-13T16:13:05;9.00;;;1.87;;
4601;SDS011;2313;48.552;9.370;2022-09-13T16:15:31;3.93;;;1.50;;
4601;SDS011;2313;48.552;9.370;2022-09-13T16:17:57;6.53;;;1.63;;
4601;SDS011;2313;48.552;9.370;2022-09-13T16:20:22;8.23;;;1.40;;
4601;SDS011;2313;48.552;9.370;2022-09-13T16:22:48;3.00;;;1.67;;
4601;SDS011;2313;48.552;9.370;2022-09-13T16:25:14;4.30;;;1.77;;
4601;SDS011;2313;48.552;9.370;2022-09-13T16:27:40;6.27;;;1.63;;
4601;SDS011;2313;48.552;9.370;2022-09-13T16:30:09;2.30;;;1.60;;
4601;SDS011;2313;48.552;9.370;2022-09-13T16:32:38;2.90;;;2.00;;
4601;SDS011;2313;48.552;9.370;2022-09-13T16:35:05;5.30;;;1.63;;
4601;SDS011;2313;48.552;9.370;2022-09-13T16:37:31;3.33;;;1.50;;
4601;SDS011;2313;48.552;9.370;2022-09-13T16:39:57;4.50;;;2.10;;
4601;SDS011;2313;48.552;9.370;2022-09-13T16:42:23;9.13;;;2.57;;
4601;SDS011;2313;48.552;9.370;2022-09-13T16:44:49;7.50;;;2.37;;
4601;SDS011;2313;48.552;9.370;2022-09-13T16:47:14;15.47;;;2.93;;
4601;SDS011;2313;48.552;9.370;2022-09-13T16:49:40;4.07;;;1.60;;
4601;SDS011;2313;48.552;9.370;2022-09-13T16:52:06;7.37;;;1.90;;
4601;SDS011;2313;48.552;9.370;2022-09-13T16:54:33;3.80;;;2.17;;
4601;SDS011;2313;48.552;9.370;2022-09-13T16:57:00;3.50;;;2.00;;
4601;SDS011;2313;48.552;9.370;2022-09-13T16:59:27;8.43;;;2.40;;
4601;SDS011;2313;48.552;9.370;2022-09-13T17:01:54;2.50;;;1.80;;
4601;SDS011;2313;48.552;9.370;2022-09-13T17:04:20;4.40;;;1.83;;
4601;SDS011;2313;48.552;9.370;2022-09-13T17:06:45;4.93;;;1.70;;
4601;SDS011;2313;48.552;9.370;2022-09-13T17:09:11;6.10;;;1.40;;
4601;SDS011;2313;48.552;9.370;2022-09-13T17:11:38;4.40;;;1.73;;
4601;SDS011;2313;48.552;9.370;2022-09-13T17:14:07;3.63;;;1.80;;
4601;SDS011;2313;48.552;9.370;2022-09-13T17:19:03;3.00;;;1.80;;
4601;SDS011;2313;48.552;9.370;2022-09-13T17:21:31;3.27;;;1.70;;
4601;SDS011;2313;48.552;9.370;2022-09-13T17:23:58;5.73;;;1.50;;
4601;SDS011;2313;48.552;9.370;2022-09-13T17:26:24;5.10;;;1.93;;
4601;SDS011;2313;48.552;9.370;2022-09-13T17:28:50;3.97;;;1.30;;
4601;SDS011;2313;48.552;9.370;2022-09-13T17:31:16;3.60;;;1.50;;
4601;SDS011;2313;48.552;9.370;2022-09-13T17:33:42;3.63;;;1.70;;
4601;SDS011;2313;48.552;9.370;2022-09-13T17:36:09;4.50;;;1.33;;
4601;SDS011;2313;48.552;9.370;2022-09-13T17:38:37;3.70;;;1.83;;
4601;SDS011;2313;48.552;9.370;2022-09-13T17:43:32;7.43;;;1.90;;
4601;SDS011;2313;48.552;9.370;2022-09-13T17:46:01;4.43;;;1.27;;
4601;SDS011;2313;48.552;9.370;2022-09-13T17:48:31;4.27;;;1.60;;
4601;SDS011;2313;48.552;9.370;2022-09-13T17:51:05;8.40;;;1.67;;
4601;SDS011;2313;48.552;9.370;2022-09-13T17:53:37;2.60;;;1.43;;
4601;SDS011;2313;48.552;9.370;2022-09-13T17:56:07;3.90;;;1.40;;
4601;SDS011;2313;48.552;9.370;2022-09-13T17:58:34;6.70;;;1.70;;
4601;SDS011;2313;48.552;9.370;2022-09-13T18:01:03;6.60;;;1.40;;
4601;SDS011;2313;48.552;9.370;2022-09-13T18:03:31;2.00;;;1.10;;
4601;SDS011;2313;48.552;9.370;2022-09-13T18:05:57;4.60;;;1.60;;
4601;SDS011;2313;48.552;9.370;2022-09-13T18:08:25;2.40;;;1.00;;
4601;SDS011;2313;48.552;9.370;2022-09-13T18:10:52;1.20;;;0.80;;
4601;SDS011;2313;48.552;9.370;2022-09-13T18:13:18;1.93;;;1.10;;
4601;SDS011;2313;48.552;9.370;2022-09-13T18:15:44;5.50;;;1.20;;
4601;SDS011;2313;48.552;9.370;2022-09-13T18:18:13;5.60;;;1.23;;
4601;SDS011;2313;48.552;9.370;2022-09-13T18:20:43;3.50;;;1.10;;
4601;SDS011;2313;48.552;9.370;2022-09-13T18:23:09;1.30;;;0.80;;
4601;SDS011;2313;48.552;9.370;2022-09-13T18:25:38;6.13;;;1.20;;
4601;SDS011;2313;48.552;9.370;2022-09-13T18:28:03;2.60;;;1.00;;
4601;SDS011;2313;48.552;9.370;2022-09-13T18:30:29;1.53;;;1.10;;
4601;SDS011;2313;48.552;9.370;2022-09-13T18:32:55;2.33;;;1.10;;
4601;SDS011;2313;48.552;9.370;2022-09-13T18:35:23;1.23;;;1.13;;
4601;SDS011;2313;48.552;9.370;2022-09-13T18:37:49;2.60;;;0.93;;
4601;SDS011;2313;48.552;9.370;2022-09-13T18:40:15;3.20;;;1.20;;
4601;SDS011;2313;48.552;9.370;2022-09-13T18:42:41;2.03;;;0.93;;
4601;SDS011;2313;48.552;9.370;2022-09-13T18:45:07;3.23;;;1.93;;
4601;SDS011;2313;48.552;9.370;2022-09-13T18:47:33;1.73;;;0.97;;
4601;SDS011;2313;48.552;9.370;2022-09-13T18:49:59;7.93;;;1.00;;
4601;SDS011;2313;48.552;9.370;2022-09-13T18:52:26;12.13;;;1.53;;
4601;SDS011;2313;48.552;9.370;2022-09-13T18:54:51;2.70;;;1.50;;
4601;SDS011;2313;48.552;9.370;2022-09-13T18:57:17;2.27;;;0.90;;
4601;SDS011;2313;48.552;9.370;2022-09-13T18:59:43;3.03;;;1.10;;
4601;SDS011;2313;48.552;9.370;2022-09-13T19:02:09;2.80;;;1.10;;
4601;SDS011;2313;48.552;9.370;2022-09-13T19:04:35;2.70;;;1.20;;
4601;SDS011;2313;48.552;9.370;2022-09-13T19:07:01;1.20;;;0.90;;
4601;SDS011;2313;48.552;9.370;2022-09-13T19:09:30;5.50;;;1.00;;
4601;SDS011;2313;48.552;9.370;2022-09-13T19:11:59;4.10;;;0.90;;
4601;SDS011;2313;48.552;9.370;2022-09-13T19:14:27;5.27;;;0.97;;
4601;SDS011;2313;48.552;9.370;2022-09-13T19:16:55;1.97;;;1.13;;
4601;SDS011;2313;48.552;9.370;2022-09-13T19:19:24;1.40;;;0.97;;
4601;SDS011;2313;48.552;9.370;2022-09-13T19:21:50;4.53;;;1.43;;
4601;SDS011;2313;48.552;9.370;2022-09-13T19:24:15;1.80;;;1.20;;